Time;durP1;ratioP1;P1;durP2;ratioP2;P2;SDS_P1;SDS_P2;PMS_P1;PMS_P2;Temp;Humidity;BMP_temperature;BMP_pressure;BME280_temperature;BME280_humidity;BME280_pressure;Samples;Min_cycle;Max_cycle;Signal;HPM_P1;HPM_P2
2022/08/10 00:01:24;;;;;;;5.35;1.88;;;20.50;65.60;;;;;;5051768;28;20028;-75
2022/08/10 00:03:50;;;;;;;4.63;1.30;;;20.40;65.70;;;;;;5070662;28;20031;-75
2022/08/10 00:06:16;;;;;;;7.95;2.03;;;20.40;65.60;;;;;;5070067;28;20029;-76
2022/08/10 00:08:41;;;;;;;5.57;1.83;;;20.40;65.50;;;;;;5070747;28;20020;-75
2022/08/10 00:11:08;;;;;;;2.92;1.40;;;20.50;65.60;;;;;;5070163;28;20487;-75
2022/08/10 00:13:34;;;;;;;7.57;2.25;;;20.40;65.80;;;;;;5069879;28;20111;-76
2022/08/10 00:15:59;;;;;;;5.80;2.17;;;20.40;65.90;;;;;;5070264;28;20242;-76
2022/08/10 00:18:25;;;;;;;4.45;1.95;;;20.40;65.80;;;;;;5070370;28;20029;-75
2022/08/10 00:20:51;;;;;;;7.22;1.92;;;20.40;65.80;;;;;;5051399;28;20036;-76
2022/08/10 00:23:17;;;;;;;5.70;1.67;;;20.30;65.80;;;;;;5052575;28;20028;-75
2022/08/10 00:25:42;;;;;;;3.72;1.35;;;20.30;66.00;;;;;;5070302;28;20479;-76
2022/08/10 00:28:08;;;;;;;6.82;1.98;;;20.30;65.90;;;;;;5069905;28;20093;-76
2022/08/10 00:30:34;;;;;;;7.50;1.42;;;20.30;65.90;;;;;;5069967;28;20031;-76
2022/08/10 00:32:59;;;;;;;7.00;1.77;;;20.30;66.10;;;;;;5051879;28;20610;-76
2022/08/10 00:35:25;;;;;;;5.18;1.52;;;20.30;66.00;;;;;;5069954;28;20537;-76
2022/08/10 00:37:50;;;;;;;11.10;2.08;;;20.30;66.20;;;;;;5070356;28;20387;-75
2022/08/10 00:40:16;;;;;;;3.60;1.65;;;20.30;66.00;;;;;;5070163;28;20142;-75
2022/08/10 00:42:42;;;;;;;5.75;1.83;;;20.30;66.30;;;;;;5072201;28;20032;-76
2022/08/10 00:45:08;;;;;;;6.15;1.60;;;20.30;66.30;;;;;;5054035;28;20086;-76
2022/08/10 00:47:34;;;;;;;4.07;1.90;;;20.30;66.40;;;;;;5069429;28;20025;-75
2022/08/10 00:50:00;;;;;;;5.75;1.50;;;20.20;66.70;;;;;;5051991;28;20908;-75
2022/08/10 00:52:27;;;;;;;5.13;1.50;;;20.20;66.50;;;;;;5069496;28;20055;-74
2022/08/10 00:54:54;;;;;;;4.57;1.63;;;20.10;66.80;;;;;;5069179;28;20029;-75
2022/08/10 00:57:20;;;;;;;3.10;1.35;;;20.10;66.80;;;;;;5068885;28;20028;-75
2022/08/10 00:59:45;;;;;;;5.10;2.13;;;20.00;67.00;;;;;;5051770;28;20086;-75
2022/08/10 01:02:12;;;;;;;3.33;1.50;;;20.00;67.00;;;;;;5069362;28;20040;-74
2022/08/10 01:04:38;;;;;;;4.30;1.40;;;20.00;67.10;;;;;;5069524;28;20474;-75
2022/08/10 01:07:12;;;;;;;7.40;1.90;;;20.00;67.00;;;;;;5069145;28;20074;-75
2022/08/10 01:09:53;;;;;;;6.65;1.85;;;20.00;67.20;;;;;;5069555;28;20103;-75
2022/08/10 01:12:29;;;;;;;3.20;1.77;;;19.90;67.20;;;;;;5069321;28;20032;-76
2022/08/10 01:15:02;;;;;;;3.63;1.33;;;19.90;67.60;;;;;;5069411;28;20027;-76
2022/08/10 01:17:33;;;;;;;4.10;1.60;;;19.90;67.60;;;;;;5069456;28;20024;-76
2022/08/10 01:19:58;;;;;;;2.47;1.35;;;19.90;67.40;;;;;;5034557;28;20103;-76
2022/08/10 01:22:54;;;;;;;5.88;1.60;;;19.80;67.70;;;;;;5069138;28;20558;-76
2022/08/10 01:26:17;;;;;;;3.88;1.30;;;19.80;67.90;;;;;;5069391;28;20082;-76
2022/08/10 01:29:00;;;;;;;3.90;1.65;;;19.80;67.80;;;;;;4951467;28;20524;-76
2022/08/10 01:31:32;;;;;;;4.97;1.60;;;19.70;67.90;;;;;;4968782;28;20027;-76
2022/08/10 01:34:04;;;;;;;4.72;1.85;;;19.60;68.20;;;;;;5044151;28;20036;-76
2022/08/10 01:36:35;;;;;;;3.85;1.75;;;19.60;68.50;;;;;;5069399;28;20028;-77
2022/08/10 01:39:03;;;;;;;5.22;1.83;;;19.60;68.80;;;;;;5069444;28;20225;-76
2022/08/10 01:41:35;;;;;;;4.53;1.90;;;19.60;68.30;;;;;;5068987;28;20032;-76
2022/08/10 01:44:08;;;;;;;3.22;1.60;;;19.60;69.30;;;;;;5068884;28;20493;-76
2022/08/10 01:46:35;;;;;;;4.43;1.90;;;19.50;68.70;;;;;;5051944;28;20383;-76
2022/08/10 01:49:05;;;;;;;5.53;2.13;;;19.60;69.00;;;;;;5069078;28;20031;-76
2022/08/10 01:51:53;;;;;;;4.55;2.20;;;19.50;69.00;;;;;;5068821;28;20031;-76
2022/08/10 01:54:23;;;;;;;6.97;2.13;;;19.50;69.10;;;;;;5068970;28;20020;-75
2022/08/10 01:56:52;;;;;;;3.25;1.42;;;19.50;69.10;;;;;;5069272;28;20331;-76
2022/08/10 01:59:32;;;;;;;5.00;2.30;;;19.50;69.00;;;;;;5068614;28;20074;-76
2022/08/10 02:02:03;;;;;;;7.00;1.88;;;19.40;69.10;;;;;;5050832;28;20029;-76
2022/08/10 02:04:30;;;;;;;6.45;1.30;;;19.40;69.00;;;;;;5050814;28;20043;-76
2022/08/10 02:06:56;;;;;;;4.78;1.80;;;19.40;68.90;;;;;;5068652;28;20110;-76
2022/08/10 02:09:30;;;;;;;4.68;2.55;;;19.40;68.90;;;;;;5068714;28;20024;-76
2022/08/10 02:12:04;;;;;;;3.88;1.50;;;19.40;69.70;;;;;;5068680;28;20085;-76
2022/08/10 02:14:43;;;;;;;3.28;1.80;;;19.40;69.60;;;;;;5068422;28;20166;-77
2022/08/10 02:17:13;;;;;;;3.95;1.67;;;19.40;69.80;;;;;;5050371;28;20418;-77
2022/08/10 02:19:42;;;;;;;4.07;1.52;;;19.40;69.00;;;;;;5068830;28;20052;-77
2022/08/10 02:22:08;;;;;;;5.57;1.63;;;19.40;69.00;;;;;;5068464;28;20423;-77
2022/08/10 02:24:38;;;;;;;4.13;1.98;;;19.40;69.10;;;;;;5050732;28;20021;-77
2022/08/10 02:27:04;;;;;;;4.78;1.95;;;19.30;69.90;;;;;;5050555;28;20016;-77
2022/08/10 02:29:32;;;;;;;2.95;2.03;;;19.30;70.00;;;;;;5068796;28;20040;-76
2022/08/10 02:31:58;;;;;;;2.58;1.50;;;19.20;70.80;;;;;;5050395;28;20021;-76
2022/08/10 02:34:25;;;;;;;5.13;2.58;;;19.20;70.40;;;;;;5068630;28;20043;-76
2022/08/10 02:36:54;;;;;;;4.50;2.13;;;19.10;70.80;;;;;;5068735;28;20032;-77
2022/08/10 02:39:22;;;;;;;4.93;2.58;;;19.10;71.70;;;;;;5067785;28;20033;-77
2022/08/10 02:41:47;;;;;;;3.47;1.88;;;19.00;71.10;;;;;;5068499;28;20171;-77
2022/08/10 02:44:47;;;;;;;4.18;2.00;;;19.00;70.40;;;;;;5068253;28;20115;-77
2022/08/10 02:47:20;;;;;;;4.00;2.33;;;18.90;71.40;;;;;;5063989;28;20035;-76
2022/08/10 02:50:02;;;;;;;4.13;1.85;;;18.90;71.70;;;;;;5068669;28;20035;-77
2022/08/10 02:52:36;;;;;;;4.93;2.08;;;18.90;71.60;;;;;;5068434;28;20028;-77
2022/08/10 02:55:08;;;;;;;4.75;2.38;;;18.90;71.50;;;;;;5068188;28;20107;-77
2022/08/10 02:57:39;;;;;;;5.22;2.08;;;18.90;71.90;;;;;;5052957;28;20024;-77
2022/08/10 03:00:06;;;;;;;5.07;2.08;;;18.90;71.20;;;;;;5071188;28;20045;-77
2022/08/10 03:02:42;;;;;;;6.25;2.40;;;18.80;71.20;;;;;;5071806;28;20489;-76
2022/08/10 03:05:16;;;;;;;3.85;1.80;;;18.80;71.70;;;;;;5054097;28;20498;-76
2022/08/10 03:07:50;;;;;;;4.95;2.08;;;18.80;71.70;;;;;;5071775;28;20029;-76
2022/08/10 03:10:20;;;;;;;5.63;2.80;;;18.80;72.00;;;;;;5071194;28;20024;-76
2022/08/10 03:12:49;;;;;;;5.22;3.47;;;18.70;72.50;;;;;;5071353;28;20025;-76
2022/08/10 03:15:17;;;;;;;3.57;2.20;;;18.70;73.50;;;;;;5071315;28;20036;-76
2022/08/10 03:17:47;;;;;;;5.63;3.10;;;18.70;73.10;;;;;;5068455;28;20028;-75
2022/08/10 03:20:14;;;;;;;6.72;2.95;;;18.70;73.10;;;;;;5071070;28;20017;-76
2022/08/10 03:22:41;;;;;;;4.68;2.13;;;18.70;72.80;;;;;;5071626;28;20156;-77
2022/08/10 03:25:10;;;;;;;8.10;3.63;;;18.70;72.40;;;;;;5036696;28;20028;-77
2022/08/10 03:27:35;;;;;;;6.22;3.58;;;18.60;73.40;;;;;;5071393;28;20029;-77
2022/08/10 03:30:01;;;;;;;7.30;3.72;;;18.60;73.50;;;;;;5070603;28;20506;-77
2022/08/10 03:32:29;;;;;;;6.40;2.83;;;18.60;74.00;;;;;;5071339;28;20035;-76
2022/08/10 03:34:57;;;;;;;5.65;2.83;;;18.60;74.00;;;;;;5070978;28;20111;-76
2022/08/10 03:37:23;;;;;;;7.53;2.30;;;18.60;74.20;;;;;;5052614;28;20024;-76
2022/08/10 03:39:50;;;;;;;6.35;2.78;;;18.60;73.10;;;;;;5070484;28;20021;-76
2022/08/10 03:42:18;;;;;;;6.15;3.08;;;18.60;73.20;;;;;;5070691;28;20040;-77
2022/08/10 03:44:44;;;;;;;4.65;2.38;;;18.50;73.80;;;;;;5070705;28;20020;-76
2022/08/10 03:47:13;;;;;;;6.95;3.13;;;18.60;74.00;;;;;;5070467;28;20051;-77
2022/08/10 03:49:47;;;;;;;6.53;2.85;;;18.50;74.50;;;;;;5070933;28;20025;-76
2022/08/10 03:52:14;;;;;;;5.25;2.85;;;18.50;74.40;;;;;;5052733;28;20032;-76
2022/08/10 03:54:41;;;;;;;5.53;2.25;;;18.50;74.40;;;;;;5053057;28;20865;-76
2022/08/10 03:57:06;;;;;;;5.97;2.47;;;18.50;74.00;;;;;;5070003;28;20394;-77
2022/08/10 03:59:32;;;;;;;7.38;3.08;;;18.50;73.50;;;;;;5070183;28;20029;-76
2022/08/10 04:02:00;;;;;;;5.70;1.85;;;18.50;74.60;;;;;;5070656;28;20024;-77
2022/08/10 04:04:26;;;;;;;6.93;3.53;;;18.50;73.70;;;;;;5070592;28;20419;-77
2022/08/10 04:06:55;;;;;;;4.30;2.38;;;18.50;74.30;;;;;;5069486;28;20056;-77
2022/08/10 04:09:27;;;;;;;6.53;2.20;;;18.40;73.70;;;;;;5070197;28;20062;-76
2022/08/10 04:11:53;;;;;;;8.93;4.57;;;18.40;74.50;;;;;;5052637;28;20491;-77
2022/08/10 04:14:19;;;;;;;7.03;3.90;;;18.40;75.30;;;;;;5070714;28;20047;-77
2022/08/10 04:16:44;;;;;;;9.57;3.85;;;18.30;76.00;;;;;;5054211;28;20009;-77
2022/08/10 04:19:13;;;;;;;7.00;4.72;;;18.30;75.80;;;;;;5072519;28;20487;-76
2022/08/10 04:21:44;;;;;;;8.73;4.85;;;18.30;76.20;;;;;;5070333;28;20049;-77
2022/08/10 04:24:16;;;;;;;7.63;4.85;;;18.20;76.40;;;;;;5049760;28;20032;-77
2022/08/10 04:26:42;;;;;;;7.10;4.47;;;18.20;76.60;;;;;;5032427;28;20029;-77
2022/08/10 04:29:08;;;;;;;7.05;5.20;;;18.20;76.60;;;;;;5050183;28;20028;-77
2022/08/10 04:31:35;;;;;;;8.35;4.35;;;18.20;76.80;;;;;;5049823;28;20036;-76
2022/08/10 04:34:02;;;;;;;7.35;5.38;;;18.20;77.10;;;;;;5031928;28;20056;-76
2022/08/10 04:36:28;;;;;;;5.22;3.35;;;18.30;77.80;;;;;;5058768;28;20051;-77
2022/08/10 04:38:54;;;;;;;6.90;4.40;;;18.30;77.40;;;;;;5051325;28;20021;-77
2022/08/10 04:41:21;;;;;;;7.47;4.68;;;18.30;77.50;;;;;;5070040;28;20399;-77
2022/08/10 04:43:50;;;;;;;7.70;3.20;;;18.30;76.50;;;;;;5070324;28;20040;-77
2022/08/10 04:46:15;;;;;;;7.35;3.88;;;18.30;75.80;;;;;;5070084;28;20044;-75
2022/08/10 04:48:41;;;;;;;7.15;4.43;;;18.30;76.90;;;;;;5052236;28;20013;-76
2022/08/10 04:51:08;;;;;;;6.40;4.78;;;18.20;76.90;;;;;;5051821;28;20024;-77
2022/08/10 04:53:33;;;;;;;9.05;5.05;;;18.20;77.90;;;;;;5070161;28;20070;-78
2022/08/10 04:55:59;;;;;;;7.10;4.80;;;18.20;78.00;;;;;;5051984;28;20139;-77
2022/08/10 04:58:25;;;;;;;6.90;5.10;;;18.20;78.60;;;;;;5069270;28;20470;-77
2022/08/10 05:00:51;;;;;;;8.48;4.50;;;18.20;78.10;;;;;;5069553;28;20025;-77
2022/08/10 05:03:16;;;;;;;7.90;5.38;;;18.30;78.20;;;;;;5068997;28;20037;-76
2022/08/10 05:05:42;;;;;;;6.43;3.63;;;18.30;78.60;;;;;;5051052;28;20013;-77
2022/08/10 05:08:07;;;;;;;10.88;7.25;;;18.30;77.30;;;;;;5069269;28;20021;-76
2022/08/10 05:10:33;;;;;;;12.00;7.30;;;18.30;78.40;;;;;;5051295;28;20052;-77
2022/08/10 05:12:59;;;;;;;9.30;6.00;;;18.40;78.80;;;;;;5069121;28;20027;-77
2022/08/10 05:15:26;;;;;;;10.10;7.30;;;18.50;78.60;;;;;;5069027;28;20020;-76
2022/08/10 05:17:51;;;;;;;9.07;5.38;;;18.50;78.60;;;;;;5068271;28;20020;-76
2022/08/10 05:20:17;;;;;;;10.20;6.88;;;18.60;78.40;;;;;;5050317;28;20378;-76
2022/08/10 05:22:44;;;;;;;8.02;4.90;;;18.60;78.60;;;;;;5068578;28;20398;-76
2022/08/10 05:25:15;;;;;;;7.38;4.35;;;18.70;78.30;;;;;;5065313;28;20493;-77
2022/08/10 05:27:41;;;;;;;5.80;3.53;;;18.70;77.80;;;;;;5049079;28;20036;-76
2022/08/10 05:30:12;;;;;;;10.18;7.03;;;18.80;76.70;;;;;;5073326;28;20040;-77
2022/08/10 05:32:38;;;;;;;;;;;18.90;76.90;;;;;;5064654;28;20548;-79
2022/08/10 05:35:05;;;;;;;4.68;2.88;;;19.00;75.80;;;;;;5060096;28;19912;-78
2022/08/10 05:37:31;;;;;;;6.03;2.92;;;19.10;74.80;;;;;;5048104;28;20025;-76
2022/08/10 05:39:57;;;;;;;5.95;3.03;;;19.40;75.40;;;;;;5053629;28;20048;-75
2022/08/10 05:42:24;;;;;;;7.88;3.85;;;20.00;75.20;;;;;;5060314;28;20068;-77
2022/08/10 05:44:50;;;;;;;7.03;3.50;;;20.50;74.00;;;;;;5068350;28;20150;-77
2022/08/10 05:47:16;;;;;;;7.43;3.75;;;20.90;72.40;;;;;;5050798;28;20055;-76
2022/08/10 05:49:42;;;;;;;7.30;3.42;;;21.30;71.40;;;;;;5063921;28;20047;-76
2022/08/10 05:52:08;;;;;;;5.50;3.17;;;21.50;71.30;;;;;;5060720;28;20727;-77
2022/08/10 05:54:36;;;;;;;5.70;3.38;;;21.80;69.90;;;;;;5067391;28;20017;-76
2022/08/10 05:57:02;;;;;;;5.28;3.00;;;21.90;69.30;;;;;;5069053;28;20021;-76
2022/08/10 05:59:32;;;;;;;6.07;3.33;;;22.20;68.70;;;;;;5061793;28;20040;-76
2022/08/10 06:02:01;;;;;;;7.38;3.00;;;22.30;68.00;;;;;;5049717;28;20044;-77
2022/08/10 06:04:36;;;;;;;5.45;2.72;;;22.40;67.70;;;;;;5068302;28;20025;-77
2022/08/10 06:07:05;;;;;;;5.68;2.72;;;22.50;67.20;;;;;;5032290;28;20043;-77
2022/08/10 06:09:32;;;;;;;4.00;2.30;;;22.60;66.70;;;;;;5067074;28;20016;-76
2022/08/10 06:11:59;;;;;;;7.00;2.88;;;22.70;66.30;;;;;;5066136;28;20029;-77
2022/08/10 06:17:15;;;;;;;3.75;2.17;;;22.80;65.70;;;;;;5063849;28;20085;-76
2022/08/10 06:19:42;;;;;;;5.53;3.15;;;22.90;65.40;;;;;;5066038;28;20025;-76
2022/08/10 06:22:09;;;;;;;4.40;2.70;;;22.90;65.20;;;;;;5066365;28;20044;-77
2022/08/10 06:24:39;;;;;;;5.00;2.80;;;22.90;65.00;;;;;;5065983;28;20027;-76
2022/08/10 06:27:06;;;;;;;7.20;3.10;;;23.00;64.60;;;;;;5066561;28;20025;-76
2022/08/10 06:29:34;;;;;;;4.85;2.45;;;23.10;64.40;;;;;;5045530;28;20048;-78
2022/08/10 06:32:02;;;;;;;4.28;2.13;;;23.10;64.30;;;;;;5070163;28;20016;-77
2022/08/10 06:34:30;;;;;;;4.32;2.30;;;23.10;64.20;;;;;;5071187;28;20025;-77
2022/08/10 06:37:00;;;;;;;4.68;2.38;;;23.10;64.10;;;;;;5070486;28;20112;-77
2022/08/10 06:39:26;;;;;;;4.75;2.45;;;23.20;63.80;;;;;;5070655;28;20081;-81
2022/08/10 06:41:58;;;;;;;4.90;2.58;;;23.40;63.40;;;;;;5070591;28;20104;-77
2022/08/10 06:44:35;;;;;;;5.00;2.28;;;23.50;63.00;;;;;;5066219;28;20025;-76
2022/08/10 06:47:04;;;;;;;6.28;2.10;;;23.60;62.70;;;;;;5064835;28;20020;-76
2022/08/10 06:49:31;;;;;;;4.45;1.90;;;23.60;62.20;;;;;;5071259;28;20033;-77
2022/08/10 06:52:01;;;;;;;5.97;2.30;;;23.60;62.20;;;;;;5071625;28;20024;-77
2022/08/10 06:54:29;;;;;;;3.97;2.10;;;23.60;62.00;;;;;;5051384;28;20501;-78
2022/08/10 06:56:56;;;;;;;3.65;1.90;;;23.70;61.70;;;;;;5071308;28;20799;-79
2022/08/10 06:59:30;;;;;;;3.65;1.90;;;23.70;61.60;;;;;;5072196;28;20016;-77
2022/08/10 07:02:01;;;;;;;3.63;1.80;;;23.80;61.50;;;;;;5070080;28;20072;-78
2022/08/10 07:04:34;;;;;;;4.38;2.30;;;23.90;61.10;;;;;;5053010;28;20029;-76
2022/08/10 07:07:05;;;;;;;3.10;1.80;;;24.10;60.80;;;;;;5070791;28;20028;-77
2022/08/10 07:09:36;;;;;;;4.72;2.17;;;24.20;60.40;;;;;;5070169;28;20016;-77
2022/08/10 07:12:04;;;;;;;4.93;2.08;;;24.20;60.00;;;;;;5067323;28;20600;-77
2022/08/10 07:14:33;;;;;;;5.30;1.90;;;24.40;59.80;;;;;;5070570;28;20061;-79
2022/08/10 07:17:00;;;;;;;3.85;1.85;;;24.50;59.50;;;;;;5067266;28;20141;-78
2022/08/10 07:19:27;;;;;;;5.10;1.63;;;24.50;59.00;;;;;;5070573;28;20111;-79
2022/08/10 07:21:53;;;;;;;3.95;1.83;;;24.50;58.80;;;;;;5069680;28;20049;-79
2022/08/10 07:24:21;;;;;;;3.13;1.20;;;24.60;58.30;;;;;;5069948;28;20040;-77
2022/08/10 07:26:51;;;;;;;3.63;1.60;;;24.70;57.90;;;;;;5071196;28;20016;-78
2022/08/10 07:29:19;;;;;;;2.75;1.23;;;24.90;57.60;;;;;;5071992;28;20095;-76
2022/08/10 07:31:48;;;;;;;4.55;1.45;;;25.00;57.90;;;;;;5070033;28;20050;-78
2022/08/10 07:34:16;;;;;;;4.50;1.40;;;25.10;56.80;;;;;;5063357;28;20066;-79
2022/08/10 07:36:43;;;;;;;3.60;1.30;;;25.20;56.50;;;;;;5064838;28;20104;-76
2022/08/10 07:39:11;;;;;;;5.55;2.00;;;25.30;56.10;;;;;;5065734;28;20032;-77
2022/08/10 07:41:40;;;;;;;2.50;1.38;;;25.40;55.90;;;;;;5068270;28;20025;-77
2022/08/10 07:44:09;;;;;;;4.65;1.73;;;25.60;56.00;;;;;;5069455;28;20020;-77
2022/08/10 07:46:39;;;;;;;4.45;1.50;;;25.70;55.20;;;;;;5062500;28;20103;-76
2022/08/10 07:49:11;;;;;;;3.08;1.30;;;25.90;54.20;;;;;;5060868;28;20086;-79
2022/08/10 07:51:37;;;;;;;3.28;1.20;;;25.90;53.70;;;;;;5062002;28;20069;-77
2022/08/10 07:54:07;;;;;;;4.65;1.38;;;26.00;53.20;;;;;;5041367;28;20032;-77
2022/08/10 07:56:36;;;;;;;3.55;1.15;;;26.00;52.20;;;;;;5060566;28;20020;-79
2022/08/10 07:59:13;;;;;;;3.47;1.45;;;25.90;52.60;;;;;;5061430;28;20036;-74
2022/08/10 08:01:49;;;;;;;2.95;1.38;;;26.00;52.80;;;;;;5059864;28;20064;-73
2022/08/10 08:04:17;;;;;;;2.28;1.10;;;26.10;52.80;;;;;;5066443;28;20458;-77
2022/08/10 08:06:44;;;;;;;3.40;1.30;;;26.40;52.80;;;;;;5061904;28;20033;-77
2022/08/10 08:09:10;;;;;;;4.57;1.50;;;26.50;52.00;;;;;;5060189;28;20150;-77
2022/08/10 08:11:41;;;;;;;3.08;1.63;;;26.70;51.30;;;;;;5069976;28;20024;-76
2022/08/10 08:14:08;;;;;;;4.90;2.00;;;26.70;49.40;;;;;;5068601;28;20020;-75
2022/08/10 08:16:38;;;;;;;2.53;1.42;;;26.80;49.10;;;;;;5069499;28;20015;-74
2022/08/10 08:19:05;;;;;;;3.72;1.80;;;26.90;50.70;;;;;;5069563;28;20035;-74
2022/08/10 08:21:33;;;;;;;5.15;1.60;;;27.00;50.10;;;;;;5068035;28;20040;-74
2022/08/10 08:24:01;;;;;;;8.30;1.88;;;27.10;49.70;;;;;;5067604;28;20016;-74
2022/08/10 08:26:30;;;;;;;3.35;1.70;;;27.20;49.40;;;;;;5068270;28;20433;-76
2022/08/10 08:28:56;;;;;;;4.45;2.13;;;27.40;49.20;;;;;;5068511;28;20032;-74
2022/08/10 08:31:23;;;;;;;3.42;1.45;;;27.40;47.40;;;;;;5069055;28;20024;-73
2022/08/10 08:33:49;;;;;;;3.88;1.48;;;27.50;48.30;;;;;;5068567;28;20027;-74
2022/08/10 08:36:20;;;;;;;4.82;1.65;;;27.60;48.90;;;;;;5068744;28;20020;-73
2022/08/10 08:38:47;;;;;;;3.67;1.58;;;27.80;49.40;;;;;;5067800;28;20030;-73
2022/08/10 08:41:52;;;;;;;3.58;2.13;;;27.90;47.90;;;;;;5046625;28;20028;-74
2022/08/10 08:44:38;;;;;;;2.63;1.10;;;28.00;46.30;;;;;;5067133;28;20382;-74
2022/08/10 08:47:12;;;;;;;4.05;1.55;;;28.20;46.20;;;;;;5065348;28;20037;-73
2022/08/10 08:49:49;;;;;;;3.30;1.50;;;28.50;47.20;;;;;;5065810;28;20021;-73
2022/08/10 08:52:34;;;;;;;5.53;1.70;;;28.60;49.10;;;;;;5067633;28;20109;-74
2022/08/10 08:55:17;;;;;;;3.58;1.50;;;28.60;45.00;;;;;;5067642;28;20024;-74
2022/08/10 08:58:05;;;;;;;6.07;1.80;;;28.80;47.00;;;;;;5067562;28;20028;-72
2022/08/10 09:00:39;;;;;;;2.40;1.20;;;28.90;48.70;;;;;;5053644;28;20092;-74
2022/08/10 09:03:26;;;;;;;5.07;2.15;;;29.00;47.10;;;;;;5068223;28;20078;-74
2022/08/10 09:06:01;;;;;;;4.15;1.48;;;29.10;45.70;;;;;;5067869;28;20024;-74
2022/08/10 09:08:42;;;;;;;4.45;2.45;;;29.30;46.70;;;;;;5052516;28;20067;-72
2022/08/10 09:11:27;;;;;;;4.53;1.67;;;29.40;44.90;;;;;;5068968;28;20082;-73
2022/08/10 09:14:04;;;;;;;6.10;1.90;;;29.60;45.90;;;;;;5069116;28;20052;-74
2022/08/10 09:17:01;;;;;;;4.43;1.20;;;29.70;43.10;;;;;;5053545;28;20040;-73
2022/08/10 09:19:40;;;;;;;4.03;1.65;;;29.70;47.60;;;;;;5069106;28;20111;-73
2022/08/10 09:22:36;;;;;;;4.60;1.83;;;30.00;43.80;;;;;;5068706;28;20052;-74
2022/08/10 09:25:23;;;;;;;4.63;1.83;;;30.20;43.40;;;;;;5053380;28;20045;-76
2022/08/10 09:27:59;;;;;;;5.88;1.65;;;30.20;44.30;;;;;;5071789;28;20035;-74
2022/08/10 09:30:48;;;;;;;7.25;2.53;;;30.20;41.30;;;;;;5070109;28;20115;-73
2022/08/10 09:33:19;;;;;;;4.30;1.63;;;30.10;40.30;;;;;;5054030;28;20520;-73
2022/08/10 09:35:58;;;;;;;3.97;1.50;;;30.10;40.90;;;;;;5071419;28;20039;-73
2022/08/10 09:38:39;;;;;;;7.22;1.92;;;30.00;40.70;;;;;;5071318;28;20044;-74
2022/08/10 09:41:42;;;;;;;3.25;1.63;;;30.00;41.80;;;;;;5071325;28;20017;-71
2022/08/10 09:44:20;;;;;;;4.40;1.80;;;29.90;41.70;;;;;;5071976;28;20037;-72
2022/08/10 09:47:26;;;;;;;3.42;1.52;;;30.10;42.70;;;;;;5050900;28;20080;-73
2022/08/10 09:49:52;;;;;;;2.65;1.10;;;30.20;42.00;;;;;;5062833;28;20040;-73
2022/08/10 09:52:39;;;;;;;3.65;1.67;;;30.40;45.00;;;;;;5070571;28;20422;-72
2022/08/10 09:55:43;;;;;;;6.40;1.50;;;30.50;42.10;;;;;;5062910;28;20399;-73
2022/08/10 09:58:37;;;;;;;3.63;1.48;;;30.60;46.50;;;;;;5062369;28;20078;-74
2022/08/10 10:01:19;;;;;;;4.72;1.25;;;30.80;45.90;;;;;;5045015;28;20048;-75
2022/08/10 10:03:54;;;;;;;2.72;1.05;;;30.80;46.30;;;;;;5029328;28;20147;-77
2022/08/10 10:06:32;;;;;;;7.07;1.90;;;30.90;45.20;;;;;;5063914;28;20028;-77
2022/08/10 10:09:08;;;;;;;5.80;1.50;;;31.00;49.30;;;;;;5063755;28;20483;-76
2022/08/10 10:11:54;;;;;;;5.13;1.50;;;30.90;47.40;;;;;;5064743;28;20085;-75
2022/08/10 10:15:19;;;;;;;6.18;1.83;;;30.90;42.10;;;;;;5029924;28;20036;-73
2022/08/10 10:18:04;;;;;;;3.40;1.30;;;31.00;42.70;;;;;;5065753;28;20445;-73
2022/08/10 10:20:34;;;;;;;5.40;1.90;;;30.90;42.50;;;;;;5061614;28;20025;-73
2022/08/10 10:23:06;;;;;;;2.75;1.13;;;31.00;47.40;;;;;;5064784;28;20056;-72
2022/08/10 10:25:43;;;;;;;2.97;1.27;;;31.20;44.70;;;;;;5066448;28;20744;-74
2022/08/10 10:28:24;;;;;;;6.32;1.25;;;31.20;49.20;;;;;;5063596;28;20028;-73
2022/08/10 10:31:07;;;;;;;13.10;2.53;;;31.40;43.90;;;;;;5062630;28;20133;-75
2022/08/10 10:33:53;;;;;;;6.32;1.90;;;31.60;48.20;;;;;;5064079;28;20471;-73
2022/08/10 10:36:20;;;;;;;2.75;0.98;;;31.80;44.10;;;;;;5064131;28;20060;-75
2022/08/10 10:38:47;;;;;;;3.60;1.20;;;31.60;39.90;;;;;;5045743;28;20021;-75
2022/08/10 10:41:28;;;;;;;2.95;0.93;;;31.60;45.00;;;;;;5060173;28;20108;-75
2022/08/10 10:44:11;;;;;;;5.63;1.48;;;31.60;41.50;;;;;;5062004;28;20028;-75
2022/08/10 10:47:14;;;;;;;4.35;1.25;;;31.80;49.20;;;;;;5045138;28;20036;-75
2022/08/10 10:50:05;;;;;;;5.82;1.00;;;31.90;38.40;;;;;;5065971;28;20033;-74
2022/08/10 10:53:01;;;;;;;3.42;1.20;;;31.80;41.50;;;;;;5065449;28;20032;-72
2022/08/10 10:55:48;;;;;;;3.85;1.38;;;31.80;40.70;;;;;;5054545;28;20029;-74
2022/08/10 10:58:32;;;;;;;2.72;1.00;;;31.90;41.20;;;;;;5069819;28;20023;-75
2022/08/10 11:01:36;;;;;;;6.63;0.98;;;32.00;46.40;;;;;;5072424;28;20111;-73
2022/08/10 11:04:26;;;;;;;5.53;1.00;;;32.10;42.50;;;;;;5031039;28;20048;-75
2022/08/10 11:07:10;;;;;;;4.30;1.55;;;32.30;44.40;;;;;;5072596;28;20042;-76
2022/08/10 11:10:06;;;;;;;3.88;1.33;;;32.30;37.70;;;;;;5068948;28;20029;-75
2022/08/10 11:12:58;;;;;;;4.63;1.60;;;32.40;45.90;;;;;;5067480;28;20028;-75
2022/08/10 11:15:52;;;;;;;5.38;1.58;;;32.50;46.20;;;;;;5072728;28;20032;-75
2022/08/10 11:18:26;;;;;;;2.55;1.33;;;32.50;43.40;;;;;;5059795;28;20200;-76
2022/08/10 11:21:06;;;;;;;2.45;1.05;;;32.50;37.40;;;;;;5071129;28;20075;-75
2022/08/10 11:23:59;;;;;;;4.15;1.17;;;32.70;44.70;;;;;;5072457;28;20048;-74
2022/08/10 11:26:32;;;;;;;6.72;1.25;;;32.80;45.00;;;;;;5027437;28;20033;-75
2022/08/10 11:29:14;;;;;;;4.03;1.40;;;32.70;46.30;;;;;;5080804;28;20103;-74
2022/08/10 11:32:17;;;;;;;4.68;1.75;;;33.00;45.50;;;;;;5054605;28;20028;-75
2022/08/10 11:35:20;;;;;;;4.40;1.33;;;33.10;44.00;;;;;;4991817;28;20031;-75
2022/08/10 11:38:25;;;;;;;2.28;1.20;;;33.10;44.00;;;;;;5030139;28;20507;-75
2022/08/10 11:41:09;;;;;;;3.88;1.10;;;33.10;38.60;;;;;;5034879;28;20036;-75
2022/08/10 11:43:52;;;;;;;1.67;0.77;;;33.30;45.00;;;;;;5038844;28;20051;-74
2022/08/10 11:46:30;;;;;;;3.17;0.90;;;33.40;36.40;;;;;;5072293;28;20055;-74
2022/08/10 11:49:06;;;;;;;6.70;1.35;;;33.60;46.50;;;;;;5071700;28;20107;-74
2022/08/10 11:51:41;;;;;;;2.83;1.15;;;33.60;46.30;;;;;;5054123;28;20036;-77
2022/08/10 11:54:18;;;;;;;4.35;1.15;;;33.70;46.00;;;;;;5071246;28;20028;-75
2022/08/10 11:56:51;;;;;;;2.50;1.10;;;33.60;38.80;;;;;;5051171;28;20028;-73
2022/08/10 12:02:05;;;;;;;2.47;0.93;;;33.70;36.40;;;;;;5058239;28;20043;-75
2022/08/10 12:04:33;;;;;;;3.25;1.20;;;33.50;39.20;;;;;;5073301;28;20029;-74
2022/08/10 12:07:03;;;;;;;2.80;1.52;;;33.60;34.80;;;;;;5078055;28;20025;-73
2022/08/10 12:09:30;;;;;;;4.95;1.27;;;33.70;37.30;;;;;;5071555;28;20021;-74
2022/08/10 12:11:58;;;;;;;2.85;1.02;;;33.70;38.10;;;;;;5070552;28;20032;-75
2022/08/10 12:14:40;;;;;;;4.53;1.08;;;33.80;39.00;;;;;;5071939;28;20020;-74
2022/08/10 12:17:32;;;;;;;2.75;0.95;;;33.90;46.50;;;;;;5071152;28;20017;-75
2022/08/10 12:20:06;;;;;;;4.03;1.40;;;34.20;48.10;;;;;;5065519;28;20047;-75
2022/08/10 12:22:55;;;;;;;2.05;0.80;;;34.20;39.90;;;;;;5069815;28;20053;-77
2022/08/10 12:25:31;;;;;;;4.57;1.30;;;34.30;41.00;;;;;;5066375;28;20040;-75
2022/08/10 12:28:07;;;;;;;2.83;1.20;;;34.30;46.00;;;;;;5069363;28;20028;-76
2022/08/10 12:30:37;;;;;;;2.88;1.30;;;34.10;43.90;;;;;;5068968;28;20165;-75
2022/08/10 12:33:08;;;;;;;2.72;1.00;;;34.00;34.30;;;;;;5069917;28;20498;-74
2022/08/10 12:35:55;;;;;;;1.70;0.90;;;34.20;40.50;;;;;;5069008;28;20024;-74
2022/08/10 12:39:01;;;;;;;2.75;1.10;;;34.30;40.70;;;;;;5048825;28;20021;-74
2022/08/10 12:41:39;;;;;;;3.38;0.98;;;34.30;43.30;;;;;;5054520;28;20043;-75
2022/08/10 12:44:13;;;;;;;4.60;1.30;;;34.20;42.90;;;;;;5068153;28;20062;-75
2022/08/10 12:47:26;;;;;;;2.38;0.85;;;34.00;35.50;;;;;;5068114;28;20103;-75
2022/08/10 12:50:19;;;;;;;2.65;1.25;;;34.00;44.20;;;;;;5058253;28;20036;-76
2022/08/10 12:52:59;;;;;;;3.33;1.15;;;34.00;36.00;;;;;;5069385;28;20029;-75
2022/08/10 12:55:27;;;;;;;2.70;1.00;;;34.10;46.80;;;;;;5070564;28;20021;-73
2022/08/10 12:57:55;;;;;;;2.63;0.90;;;34.20;32.20;;;;;;5069659;28;20024;-74
2022/08/10 13:00:29;;;;;;;1.80;0.90;;;34.20;37.20;;;;;;5051619;28;20059;-73
2022/08/10 13:02:57;;;;;;;2.88;1.10;;;34.20;41.10;;;;;;5069725;28;20032;-74
2022/08/10 13:05:25;;;;;;;2.28;0.95;;;34.40;43.40;;;;;;5069146;28;20530;-74
2022/08/10 13:09:07;;;;;;;3.40;1.25;;;34.50;37.80;;;;;;5069444;28;20483;-75
2022/08/10 13:11:00;;;;;;;1.65;0.82;;;34.50;39.10;;;;;;5049104;28;20105;-75
2022/08/10 13:13:35;;;;;;;3.00;0.90;;;34.50;39.00;;;;;;5049578;28;20025;-75
2022/08/10 13:16:02;;;;;;;3.65;1.20;;;34.70;47.70;;;;;;5066228;28;20043;-74
2022/08/10 13:18:36;;;;;;;7.30;1.73;;;34.80;45.50;;;;;;5069272;28;20035;-76
2022/08/10 13:21:11;;;;;;;3.40;1.15;;;34.90;39.00;;;;;;5069173;28;20114;-74
2022/08/10 13:23:56;;;;;;;1.55;0.93;;;34.90;36.20;;;;;;5068860;28;20485;-75
2022/08/10 13:26:24;;;;;;;2.75;1.00;;;34.80;38.50;;;;;;5067437;28;20079;-74